createdAt,value
2023-04-30T00:03:17.453Z,100541.22
2023-04-30T00:08:25.084Z,100534.28
2023-04-30T00:13:32.879Z,100529.91
2023-04-30T00:18:39.300Z,100534.19
2023-04-30T00:23:46.424Z,100540.31
2023-04-30T00:28:54.156Z,100539.41
2023-04-30T00:34:00.583Z,100541.13
2023-04-30T00:39:07.008Z,100547.16
2023-04-30T00:44:14.853Z,100550.59
2023-04-30T00:49:21.384Z,100548.84
2023-04-30T00:54:28.260Z,100551.44
2023-04-30T00:59:36.383Z,100551.47
2023-04-30T01:04:43.000Z,100559.31
2023-04-30T01:09:49.754Z,100570.78
2023-04-30T01:15:20.757Z,100570.78
2023-04-30T01:20:30.834Z,100571.72
2023-04-30T01:25:54.016Z,100583.75
2023-04-30T01:31:02.965Z,100591.53
2023-04-30T01:36:32.192Z,100593.25
2023-04-30T01:41:45.191Z,100599.56
2023-04-30T01:47:04.128Z,100609.38
2023-04-30T01:52:22.627Z,100611.47
2023-04-30T01:57:34.806Z,100617.88
2023-04-30T02:02:43.105Z,100628.31
2023-04-30T02:07:52.425Z,100641.59
2023-04-30T02:12:59.295Z,100638.16
2023-04-30T02:18:08.457Z,100645.44
2023-04-30T02:23:15.280Z,100659.31
2023-04-30T02:28:21.761Z,100667.16
2023-04-30T02:33:29.569Z,100677.78
2023-04-30T02:38:36.270Z,100694.06
2023-04-30T02:43:42.542Z,100694.72
2023-04-30T02:48:50.252Z,100696.81
2023-04-30T02:53:56.634Z,100697.81
2023-04-30T02:59:02.763Z,100708.56
2023-04-30T03:04:10.527Z,100710.78
2023-04-30T03:09:16.968Z,100720.41
2023-04-30T03:14:24.056Z,100723.06
2023-04-30T03:19:32.124Z,100727.66
2023-04-30T03:24:38.636Z,100739.63
2023-04-30T03:29:44.952Z,100745.69
2023-04-30T03:34:52.874Z,100754.38
2023-04-30T03:39:59.265Z,100757.06
2023-04-30T03:45:07.460Z,100757.94
2023-04-30T03:50:15.438Z,100759.63
2023-04-30T03:55:22.296Z,100767.41
2023-04-30T04:00:28.936Z,100779.66
2023-04-30T04:05:36.908Z,100787.41
2023-04-30T04:10:43.748Z,100787.41
2023-04-30T04:15:50.088Z,100796.09
2023-04-30T04:20:58.291Z,100805.53
2023-04-30T04:26:04.936Z,100822.03
2023-04-30T04:31:11.813Z,100825.63
2023-04-30T04:36:19.707Z,100826.66
2023-04-30T04:41:26.991Z,100843.19
2023-04-30T04:46:34.346Z,100855.28
2023-04-30T04:51:42.552Z,100855.44
2023-04-30T04:56:49.266Z,100865.75
2023-04-30T05:01:55.961Z,100871.03
2023-04-30T05:07:04.672Z,100885.91
2023-04-30T05:12:10.896Z,100891.44
2023-04-30T05:17:17.216Z,100899.09
2023-04-30T05:22:25.346Z,100911.31
2023-04-30T05:27:31.847Z,100914.91
2023-04-30T05:32:38.668Z,100924.34
2023-04-30T05:37:46.819Z,100936.25
2023-04-30T05:42:52.961Z,100941.31
2023-04-30T05:47:59.530Z,100937.69
2023-04-30T05:53:07.764Z,100942.72
2023-04-30T05:58:14.429Z,100947.75
2023-04-30T06:03:21.492Z,100959.88
2023-04-30T06:08:30.072Z,100953.91
2023-04-30T06:13:36.516Z,100965.28
2023-04-30T06:18:42.819Z,100958.44
2023-04-30T06:23:50.636Z,100971.31
2023-04-30T06:28:57.024Z,100973.88
2023-04-30T06:34:03.624Z,100968.63
2023-04-30T06:39:13.042Z,100978.09
2023-04-30T06:44:19.699Z,100983.13
2023-04-30T06:49:26.219Z,100983.13
2023-04-30T06:54:34.384Z,100983.13
2023-04-30T06:59:41.128Z,100990.06
2023-04-30T07:04:47.866Z,100986.63
2023-04-30T07:09:56.418Z,100990.09
2023-04-30T07:15:04.274Z,101000.59
2023-04-30T07:20:16.486Z,100998.63
2023-04-30T07:25:24.806Z,101004.91
2023-04-30T07:30:31.308Z,101011.00
2023-04-30T07:35:38.156Z,101011.94
2023-04-30T07:40:46.616Z,101020.56
2023-04-30T07:45:54.674Z,101025.84
2023-04-30T07:51:01.225Z,101032.69
2023-04-30T07:56:09.874Z,101034.41
2023-04-30T08:01:17.217Z,101047.41
2023-04-30T08:06:23.946Z,101050.88
2023-04-30T08:11:31.966Z,101058.72
2023-04-30T08:16:38.580Z,101058.63
2023-04-30T08:21:45.571Z,101056.00
2023-04-30T08:26:54.850Z,101053.25
2023-04-30T08:32:06.217Z,101063.53
2023-04-30T08:37:12.772Z,101074.78
2023-04-30T08:42:23.806Z,101065.09
2023-04-30T08:47:30.777Z,101068.63
2023-04-30T08:52:39.094Z,101065.91
2023-04-30T08:57:47.764Z,101070.03
2023-04-30T09:02:54.820Z,101077.69
2023-04-30T09:08:04.090Z,101082.81
2023-04-30T09:13:14.355Z,101078.41
2023-04-30T09:18:22.192Z,101079.19
2023-04-30T09:23:29.400Z,101085.00
2023-04-30T09:28:37.415Z,101097.22
2023-04-30T09:33:48.949Z,101096.25
2023-04-30T09:38:55.847Z,101099.56
2023-04-30T09:44:04.586Z,101101.00
2023-04-30T09:49:15.257Z,101109.44
2023-04-30T09:54:24.660Z,101103.31
2023-04-30T09:59:35.670Z,101108.91
2023-04-30T10:04:46.075Z,101104.47
2023-04-30T10:09:58.856Z,101105.22
2023-04-30T10:15:16.658Z,101105.16
2023-04-30T10:20:27.627Z,101101.78
2023-04-30T10:25:35.753Z,101102.31
2023-04-30T10:30:44.864Z,101104.41
2023-04-30T10:35:56.530Z,101098.22
2023-04-30T10:41:08.238Z,101101.63
2023-04-30T10:46:25.288Z,101103.50
2023-04-30T10:51:52.083Z,101105.06
2023-04-30T10:57:14.583Z,101106.63
2023-04-30T11:02:23.888Z,101102.25
2023-04-30T11:07:31.749Z,101102.03
2023-04-30T11:12:42.621Z,101099.19
2023-04-30T11:17:52.085Z,101090.19
2023-04-30T11:23:19.627Z,101107.34
2023-04-30T11:28:36.406Z,101106.28
2023-04-30T11:33:44.786Z,101111.22
2023-04-30T11:38:53.723Z,101112.53
2023-04-30T11:44:00.259Z,101109.78
2023-04-30T11:49:09.999Z,101114.50
2023-04-30T11:54:18.965Z,101115.25
2023-04-30T11:59:25.854Z,101113.78
2023-04-30T12:04:34.618Z,101118.00
2023-04-30T12:09:55.654Z,101123.31
2023-04-30T12:15:14.955Z,101119.91
2023-04-30T12:20:24.341Z,101115.66
2023-04-30T12:25:32.507Z,101117.72
2023-04-30T12:30:39.286Z,101116.34
2023-04-30T12:35:48.087Z,101112.97
2023-04-30T12:40:54.351Z,101122.91
2023-04-30T12:46:01.544Z,101120.13
2023-04-30T12:51:10.608Z,101108.69
2023-04-30T12:56:19.007Z,101102.66
2023-04-30T13:01:26.218Z,101112.44
2023-04-30T13:06:35.735Z,101107.63
2023-04-30T13:11:43.325Z,101112.31
2023-04-30T13:16:49.896Z,101105.56
2023-04-30T13:22:00.998Z,101112.31
2023-04-30T13:27:07.727Z,101115.88
2023-04-30T13:32:14.380Z,101101.56
2023-04-30T13:37:22.763Z,101110.72
2023-04-30T13:42:29.548Z,101105.50
2023-04-30T13:47:38.517Z,101107.28
2023-04-30T13:52:46.131Z,101103.94
2023-04-30T13:57:52.846Z,101098.84
2023-04-30T14:02:59.725Z,101097.28
2023-04-30T14:08:08.658Z,101102.19
2023-04-30T14:13:15.565Z,101101.75
2023-04-30T14:18:23.135Z,101100.81
2023-04-30T14:23:31.556Z,101101.31
2023-04-30T14:28:38.148Z,101105.84
2023-04-30T14:33:44.701Z,101098.22
2023-04-30T14:38:52.755Z,101099.13
2023-04-30T14:43:59.699Z,101103.78
2023-04-30T14:49:06.771Z,101102.28
2023-04-30T14:54:15.527Z,101097.78
2023-04-30T14:59:22.129Z,101111.78
2023-04-30T15:04:28.883Z,101122.09
2023-04-30T15:09:37.173Z,101119.53
2023-04-30T15:14:44.451Z,101114.28
2023-04-30T15:19:52.343Z,101114.22
2023-04-30T15:25:00.757Z,101114.13
2023-04-30T15:30:09.854Z,101111.56
2023-04-30T15:35:16.661Z,101117.94
2023-04-30T15:40:25.014Z,101118.13
2023-04-30T15:45:32.661Z,101129.66
2023-04-30T15:50:39.360Z,101132.50
2023-04-30T15:55:48.220Z,101130.03
2023-04-30T16:00:55.082Z,101128.38
2023-04-30T16:06:03.212Z,101120.81
2023-04-30T16:11:11.446Z,101130.09
2023-04-30T16:16:18.368Z,101120.00
2023-04-30T16:21:25.590Z,101122.66
2023-04-30T16:26:35.176Z,101121.13
2023-04-30T16:31:42.514Z,101127.34
2023-04-30T16:36:49.565Z,101129.28
2023-04-30T16:41:57.872Z,101121.69
2023-04-30T16:47:05.119Z,101125.59
2023-04-30T16:52:12.992Z,101132.75
2023-04-30T16:57:21.461Z,101134.69
2023-04-30T17:02:28.465Z,101132.28
2023-04-30T17:07:35.831Z,101138.56
2023-04-30T17:12:44.450Z,101146.50
2023-04-30T17:17:52.463Z,101144.97
2023-04-30T17:22:59.545Z,101141.72
2023-04-30T17:28:08.435Z,101142.88
2023-04-30T17:33:18.971Z,101156.97
2023-04-30T17:38:25.653Z,101159.03
2023-04-30T17:43:35.653Z,101160.00
2023-04-30T17:48:42.948Z,101172.56
2023-04-30T17:53:50.998Z,101172.00
2023-04-30T17:59:00.976Z,101175.16
2023-04-30T18:04:11.254Z,101176.59
2023-04-30T18:09:19.192Z,101183.97
2023-04-30T18:14:28.985Z,101184.34
2023-04-30T18:19:39.138Z,101186.31
2023-04-30T18:24:47.615Z,101193.56
2023-04-30T18:29:59.437Z,101202.53
2023-04-30T18:35:07.216Z,101205.44
2023-04-30T18:40:16.013Z,101202.19
2023-04-30T18:45:28.111Z,101211.00
2023-04-30T18:50:35.893Z,101214.69
2023-04-30T18:55:44.011Z,101212.28
2023-04-30T19:00:53.248Z,101233.09
2023-04-30T19:06:04.869Z,101222.59
2023-04-30T19:11:15.684Z,101233.78
2023-04-30T19:16:29.773Z,101228.63
2023-04-30T19:21:39.174Z,101241.69
2023-04-30T19:26:47.726Z,101239.94
2023-04-30T19:31:58.664Z,101239.13
2023-04-30T19:37:07.642Z,101240.09
2023-04-30T19:42:18.373Z,101243.66
2023-04-30T19:47:29.728Z,101245.44
2023-04-30T19:52:38.903Z,101246.34
2023-04-30T19:57:49.300Z,101247.25
2023-04-30T20:03:05.008Z,101242.13
2023-04-30T20:08:16.203Z,101240.41
2023-04-30T20:13:28.178Z,101242.13
2023-04-30T20:18:47.624Z,101249.09
2023-04-30T20:23:55.989Z,101254.28
2023-04-30T20:29:05.429Z,101257.75
2023-04-30T20:34:15.015Z,101263.81
2023-04-30T20:39:25.094Z,101264.59
2023-04-30T20:44:32.573Z,101266.31
2023-04-30T20:49:41.618Z,101259.44
2023-04-30T20:54:50.427Z,101267.19
2023-04-30T20:59:58.117Z,101265.44
2023-04-30T21:05:07.719Z,101270.63
2023-04-30T21:10:15.518Z,101272.19
2023-04-30T21:15:22.881Z,101291.91
2023-04-30T21:20:32.535Z,101309.09
2023-04-30T21:25:40.421Z,101315.94
2023-04-30T21:30:47.648Z,101318.50
2023-04-30T21:35:57.657Z,101334.78
2023-04-30T21:41:04.702Z,101345.28
2023-04-30T21:46:11.645Z,101342.13
2023-04-30T21:51:20.047Z,101349.19
2023-04-30T21:56:26.800Z,101351.03
2023-04-30T22:01:33.979Z,101356.25
2023-04-30T22:06:42.698Z,101359.72
2023-04-30T22:11:49.912Z,101363.16
2023-04-30T22:16:57.257Z,101368.34
2023-04-30T22:22:05.963Z,101379.53
2023-04-30T22:27:13.059Z,101384.72
2023-04-30T22:32:21.867Z,101386.44
2023-04-30T22:37:31.750Z,101389.88
2023-04-30T22:42:38.561Z,101383.78
2023-04-30T22:47:46.193Z,101395.03
2023-04-30T22:52:56.756Z,101402.66
2023-04-30T22:58:06.550Z,101398.28
2023-04-30T23:03:13.580Z,101404.16
2023-04-30T23:08:21.930Z,101405.09
2023-04-30T23:13:29.026Z,101416.38
2023-04-30T23:18:35.663Z,101415.41
2023-04-30T23:23:44.524Z,101416.78
2023-04-30T23:28:51.628Z,101404.63
2023-04-30T23:33:58.434Z,101407.19
2023-04-30T23:39:06.704Z,101397.72
2023-04-30T23:44:13.813Z,101408.09
2023-04-30T23:49:24.763Z,101421.59
2023-04-30T23:54:33.249Z,101417.19
2023-04-30T23:59:40.153Z,101424.84
